Airfield :
LOGIN :

Register | Disclaimer

   EN    FR    IT 

 










Legend :    VFR   Marginal VFR   IFR   Intensive IFR   Very Intensive IFR
Visi :
Ceiling :
>= 8 km
>= 3000ft
5 to 8 km
1000 to 3000 ft
1500m to 5 km
500 to 1000 ft
800 to 1500m
200 to 500 ft
< 800m
< 200 ft
Symbols :   Thunderstorms  Fog  Heavy snow  Heavy precipitations  Wind > 20 kt
SIGMETs :     Misc.  Thunderstorms  Icing  Turbulence  Mountain Waves  Volcanic Ashes






- Airport Elevation : 194 ft
- IATA code : ANE


LFJR - Angers Marcé

CURRENT METAR :
  • 102230Z AUTO 18012KT 9999 BKN025 OVC035 09/07 Q1016

EXPIRED METARs :
  • 102200Z AUTO 18012KT 9999 BKN017 BKN025 OVC034 09/07 Q1016
  • 102130Z AUTO 18009KT 9999 BKN016 OVC035 09/07 Q1017
  • 102100Z AUTO 18010KT 9999 BKN016 OVC041 09/06 Q1017
  • 102030Z AUTO 17010KT 9999 FEW017 OVC045 09/06 Q1017
  • 102000Z AUTO 17009KT 9999 FEW016 OVC044 09/06 Q1018

Expired Forecast.



MET'MAP, your aeronautical weather chart ! - Copyright ORBIFLY December 2007 - Disclaimer

ORBIFLY MET'MAP TEAM :

Programming & Development : Alexandra Zaïnal
Concept & original design : Baudouin d'Aumeries
Assistance for programming : Marc-Olivier Méhu
Technical & hardware support : Manuel Goepfert

Contact : metmap@orbifly.com




SOURCES & CREDITS :

   NOAA